sensor_id;sensor_type;location;lat;lon;timestamp;temperature;humidity
15095;DHT22;7648;52.264;9.632;2023-01-31T00:02:06;4.70;99.90
15095;DHT22;7648;52.264;9.632;2023-01-31T00:06:14;4.60;99.90
15095;DHT22;7648;52.264;9.632;2023-01-31T00:10:17;4.70;99.90
15095;DHT22;7648;52.264;9.632;2023-01-31T00:14:19;4.70;99.90
15095;DHT22;7648;52.264;9.632;2023-01-31T00:18:21;4.60;99.90
15095;DHT22;7648;52.264;9.632;2023-01-31T00:22:23;4.60;99.90
15095;DHT22;7648;52.264;9.632;2023-01-31T00:26:28;4.60;99.90
15095;DHT22;7648;52.264;9.632;2023-01-31T00:30:30;4.60;99.90
15095;DHT22;7648;52.264;9.632;2023-01-31T00:34:32;4.60;99.90
15095;DHT22;7648;52.264;9.632;2023-01-31T00:38:34;4.60;99.90
15095;DHT22;7648;52.264;9.632;2023-01-31T00:42:37;4.60;99.90
15095;DHT22;7648;52.264;9.632;2023-01-31T00:46:39;4.60;99.90
15095;DHT22;7648;52.264;9.632;2023-01-31T00:50:41;4.50;99.90
15095;DHT22;7648;52.264;9.632;2023-01-31T00:54:45;4.60;99.90
15095;DHT22;7648;52.264;9.632;2023-01-31T00:58:49;4.60;99.90
15095;DHT22;7648;52.264;9.632;2023-01-31T01:02:51;4.60;99.90
15095;DHT22;7648;52.264;9.632;2023-01-31T01:06:53;4.60;99.90
15095;DHT22;7648;52.264;9.632;2023-01-31T01:10:55;4.60;99.90
15095;DHT22;7648;52.264;9.632;2023-01-31T01:14:58;4.60;99.90
15095;DHT22;7648;52.264;9.632;2023-01-31T01:19:01;4.70;99.90
15095;DHT22;7648;52.264;9.632;2023-01-31T01:23:05;4.70;99.90
15095;DHT22;7648;52.264;9.632;2023-01-31T01:27:07;4.70;99.90
15095;DHT22;7648;52.264;9.632;2023-01-31T01:31:12;4.70;99.90
15095;DHT22;7648;52.264;9.632;2023-01-31T01:35:15;4.70;99.90
15095;DHT22;7648;52.264;9.632;2023-01-31T01:39:17;4.80;99.90
15095;DHT22;7648;52.264;9.632;2023-01-31T01:43:19;4.90;99.90
15095;DHT22;7648;52.264;9.632;2023-01-31T01:47:32;4.80;99.90
15095;DHT22;7648;52.264;9.632;2023-01-31T01:51:34;4.80;99.90
15095;DHT22;7648;52.264;9.632;2023-01-31T01:55:39;4.80;99.90
15095;DHT22;7648;52.264;9.632;2023-01-31T01:59:44;4.80;99.90
15095;DHT22;7648;52.264;9.632;2023-01-31T02:03:50;4.80;99.90
15095;DHT22;7648;52.264;9.632;2023-01-31T02:07:53;4.80;99.90
15095;DHT22;7648;52.264;9.632;2023-01-31T02:11:57;4.70;99.90
15095;DHT22;7648;52.264;9.632;2023-01-31T02:15:59;4.70;99.90
15095;DHT22;7648;52.264;9.632;2023-01-31T02:20:12;4.60;99.90
15095;DHT22;7648;52.264;9.632;2023-01-31T02:33:22;4.50;99.90
15095;DHT22;7648;52.264;9.632;2023-01-31T02:37:28;4.50;99.90
15095;DHT22;7648;52.264;9.632;2023-01-31T02:41:35;4.60;99.90
15095;DHT22;7648;52.264;9.632;2023-01-31T02:45:45;4.60;99.90
15095;DHT22;7648;52.264;9.632;2023-01-31T02:49:54;4.50;99.90
15095;DHT22;7648;52.264;9.632;2023-01-31T02:54:02;4.60;99.90
15095;DHT22;7648;52.264;9.632;2023-01-31T02:58:07;4.60;99.90
15095;DHT22;7648;52.264;9.632;2023-01-31T03:02:11;4.50;99.90
15095;DHT22;7648;52.264;9.632;2023-01-31T03:11:04;4.50;99.90
15095;DHT22;7648;52.264;9.632;2023-01-31T03:19:59;4.60;99.90
15095;DHT22;7648;52.264;9.632;2023-01-31T03:24:07;4.60;99.90
15095;DHT22;7648;52.264;9.632;2023-01-31T03:28:13;4.60;99.90
15095;DHT22;7648;52.264;9.632;2023-01-31T03:32:23;4.60;99.90
15095;DHT22;7648;52.264;9.632;2023-01-31T03:36:30;4.70;99.90
15095;DHT22;7648;52.264;9.632;2023-01-31T03:40:48;4.60;99.90
15095;DHT22;7648;52.264;9.632;2023-01-31T03:44:59;4.60;99.90
15095;DHT22;7648;52.264;9.632;2023-01-31T03:49:09;4.60;99.90
15095;DHT22;7648;52.264;9.632;2023-01-31T03:53:15;4.40;99.90
15095;DHT22;7648;52.264;9.632;2023-01-31T03:57:23;4.40;99.90
15095;DHT22;7648;52.264;9.632;2023-01-31T04:01:29;4.30;99.90
15095;DHT22;7648;52.264;9.632;2023-01-31T04:05:32;4.20;99.90
15095;DHT22;7648;52.264;9.632;2023-01-31T04:09:37;4.30;99.90
15095;DHT22;7648;52.264;9.632;2023-01-31T04:13:40;4.20;99.90
15095;DHT22;7648;52.264;9.632;2023-01-31T04:17:43;4.20;99.90
15095;DHT22;7648;52.264;9.632;2023-01-31T04:21:45;4.30;99.90
15095;DHT22;7648;52.264;9.632;2023-01-31T04:25:47;4.30;99.90
15095;DHT22;7648;52.264;9.632;2023-01-31T04:29:49;4.40;99.90
15095;DHT22;7648;52.264;9.632;2023-01-31T04:33:52;4.30;99.90
15095;DHT22;7648;52.264;9.632;2023-01-31T04:37:54;4.30;99.90
15095;DHT22;7648;52.264;9.632;2023-01-31T04:41:56;4.30;99.90
15095;DHT22;7648;52.264;9.632;2023-01-31T04:45:57;4.30;99.90
15095;DHT22;7648;52.264;9.632;2023-01-31T04:50:01;4.20;99.90
15095;DHT22;7648;52.264;9.632;2023-01-31T04:54:03;4.20;99.90
15095;DHT22;7648;52.264;9.632;2023-01-31T04:58:05;4.10;99.90
15095;DHT22;7648;52.264;9.632;2023-01-31T05:02:07;4.10;99.90
15095;DHT22;7648;52.264;9.632;2023-01-31T05:06:10;4.10;99.90
15095;DHT22;7648;52.264;9.632;2023-01-31T05:10:12;4.10;99.90
15095;DHT22;7648;52.264;9.632;2023-01-31T05:14:14;4.10;99.90
15095;DHT22;7648;52.264;9.632;2023-01-31T05:18:16;4.10;99.90
15095;DHT22;7648;52.264;9.632;2023-01-31T05:22:19;4.10;99.90
15095;DHT22;7648;52.264;9.632;2023-01-31T05:26:22;4.10;99.90
15095;DHT22;7648;52.264;9.632;2023-01-31T05:30:23;4.10;99.90
15095;DHT22;7648;52.264;9.632;2023-01-31T05:34:26;4.20;99.90
15095;DHT22;7648;52.264;9.632;2023-01-31T05:38:31;4.20;99.90
15095;DHT22;7648;52.264;9.632;2023-01-31T05:42:33;4.30;99.90
15095;DHT22;7648;52.264;9.632;2023-01-31T05:46:35;4.30;99.90
15095;DHT22;7648;52.264;9.632;2023-01-31T05:50:37;4.30;99.90
15095;DHT22;7648;52.264;9.632;2023-01-31T05:54:46;4.30;99.90
15095;DHT22;7648;52.264;9.632;2023-01-31T05:58:48;4.40;99.90
15095;DHT22;7648;52.264;9.632;2023-01-31T06:02:51;4.40;99.90
15095;DHT22;7648;52.264;9.632;2023-01-31T06:06:53;4.40;99.90
15095;DHT22;7648;52.264;9.632;2023-01-31T06:10:56;4.40;99.90
15095;DHT22;7648;52.264;9.632;2023-01-31T06:14:58;4.50;99.90
15095;DHT22;7648;52.264;9.632;2023-01-31T06:19:00;4.50;99.90
15095;DHT22;7648;52.264;9.632;2023-01-31T06:23:02;4.50;99.90
15095;DHT22;7648;52.264;9.632;2023-01-31T06:27:05;4.60;99.90
15095;DHT22;7648;52.264;9.632;2023-01-31T06:31:07;4.50;99.90
15095;DHT22;7648;52.264;9.632;2023-01-31T06:35:09;4.60;99.90
15095;DHT22;7648;52.264;9.632;2023-01-31T06:39:12;4.60;99.90
15095;DHT22;7648;52.264;9.632;2023-01-31T06:43:15;4.60;99.90
15095;DHT22;7648;52.264;9.632;2023-01-31T06:47:17;4.60;99.90
15095;DHT22;7648;52.264;9.632;2023-01-31T06:51:19;4.60;99.90
15095;DHT22;7648;52.264;9.632;2023-01-31T06:55:21;4.50;99.90
15095;DHT22;7648;52.264;9.632;2023-01-31T06:59:24;4.60;99.90
15095;DHT22;7648;52.264;9.632;2023-01-31T07:03:26;4.60;99.90
15095;DHT22;7648;52.264;9.632;2023-01-31T07:07:28;4.60;99.90
15095;DHT22;7648;52.264;9.632;2023-01-31T07:11:30;4.70;99.90
15095;DHT22;7648;52.264;9.632;2023-01-31T07:15:33;4.70;99.90
15095;DHT22;7648;52.264;9.632;2023-01-31T07:19:35;4.80;99.90
15095;DHT22;7648;52.264;9.632;2023-01-31T07:23:37;4.80;99.90
15095;DHT22;7648;52.264;9.632;2023-01-31T07:27:39;4.80;99.90
15095;DHT22;7648;52.264;9.632;2023-01-31T07:31:42;4.90;99.90
15095;DHT22;7648;52.264;9.632;2023-01-31T07:35:44;4.90;99.90
15095;DHT22;7648;52.264;9.632;2023-01-31T07:39:45;5.00;99.90
15095;DHT22;7648;52.264;9.632;2023-01-31T07:43:47;4.90;99.90
15095;DHT22;7648;52.264;9.632;2023-01-31T07:47:50;5.00;99.90
15095;DHT22;7648;52.264;9.632;2023-01-31T07:51:52;5.00;99.90
15095;DHT22;7648;52.264;9.632;2023-01-31T07:55:54;5.10;99.90
15095;DHT22;7648;52.264;9.632;2023-01-31T07:59:57;5.10;99.90
15095;DHT22;7648;52.264;9.632;2023-01-31T08:04:00;5.20;99.90
15095;DHT22;7648;52.264;9.632;2023-01-31T08:08:01;5.20;99.90
15095;DHT22;7648;52.264;9.632;2023-01-31T08:12:10;5.30;99.90
15095;DHT22;7648;52.264;9.632;2023-01-31T08:16:12;5.30;99.90
15095;DHT22;7648;52.264;9.632;2023-01-31T08:20:16;5.40;99.90
15095;DHT22;7648;52.264;9.632;2023-01-31T08:24:18;5.50;99.90
15095;DHT22;7648;52.264;9.632;2023-01-31T08:28:20;5.50;99.90
15095;DHT22;7648;52.264;9.632;2023-01-31T08:32:22;5.50;99.90
15095;DHT22;7648;52.264;9.632;2023-01-31T08:36:28;5.50;99.90
15095;DHT22;7648;52.264;9.632;2023-01-31T08:40:31;5.50;99.90
15095;DHT22;7648;52.264;9.632;2023-01-31T08:44:33;5.50;99.90
15095;DHT22;7648;52.264;9.632;2023-01-31T08:48:38;5.60;99.90
15095;DHT22;7648;52.264;9.632;2023-01-31T08:52:42;5.60;99.90
15095;DHT22;7648;52.264;9.632;2023-01-31T08:56:44;5.60;99.90
15095;DHT22;7648;52.264;9.632;2023-01-31T09:00:45;5.70;99.90
15095;DHT22;7648;52.264;9.632;2023-01-31T09:04:47;5.70;99.90
15095;DHT22;7648;52.264;9.632;2023-01-31T09:08:51;5.80;99.90
15095;DHT22;7648;52.264;9.632;2023-01-31T09:12:53;5.90;99.90
15095;DHT22;7648;52.264;9.632;2023-01-31T09:16:55;5.90;99.90
15095;DHT22;7648;52.264;9.632;2023-01-31T09:21:02;5.90;99.90
15095;DHT22;7648;52.264;9.632;2023-01-31T09:25:07;5.90;99.90
15095;DHT22;7648;52.264;9.632;2023-01-31T09:29:09;5.90;99.90
15095;DHT22;7648;52.264;9.632;2023-01-31T09:33:11;5.90;99.90
15095;DHT22;7648;52.264;9.632;2023-01-31T09:37:12;5.80;99.90
15095;DHT22;7648;52.264;9.632;2023-01-31T09:41:22;5.80;99.90
15095;DHT22;7648;52.264;9.632;2023-01-31T09:45:29;5.70;99.90
15095;DHT22;7648;52.264;9.632;2023-01-31T09:49:40;5.50;99.90
15095;DHT22;7648;52.264;9.632;2023-01-31T09:53:44;5.40;99.90
15095;DHT22;7648;52.264;9.632;2023-01-31T09:57:53;5.20;99.90
15095;DHT22;7648;52.264;9.632;2023-01-31T10:02:10;5.10;99.90
15095;DHT22;7648;52.264;9.632;2023-01-31T10:06:19;5.10;99.90
15095;DHT22;7648;52.264;9.632;2023-01-31T10:10:30;5.20;99.90
15095;DHT22;7648;52.264;9.632;2023-01-31T10:14:38;5.20;99.90
15095;DHT22;7648;52.264;9.632;2023-01-31T10:18:45;5.30;99.90
15095;DHT22;7648;52.264;9.632;2023-01-31T10:22:51;5.30;99.90
15095;DHT22;7648;52.264;9.632;2023-01-31T10:26:59;5.30;99.90
15095;DHT22;7648;52.264;9.632;2023-01-31T10:31:09;5.40;99.90
15095;DHT22;7648;52.264;9.632;2023-01-31T10:35:16;5.40;99.90
15095;DHT22;7648;52.264;9.632;2023-01-31T10:39:23;5.50;99.90
15095;DHT22;7648;52.264;9.632;2023-01-31T10:43:33;5.60;99.90
15095;DHT22;7648;52.264;9.632;2023-01-31T10:47:47;5.70;99.90
15095;DHT22;7648;52.264;9.632;2023-01-31T10:52:01;5.70;99.90
15095;DHT22;7648;52.264;9.632;2023-01-31T10:56:11;5.70;99.90
15095;DHT22;7648;52.264;9.632;2023-01-31T11:00:19;5.80;99.90
15095;DHT22;7648;52.264;9.632;2023-01-31T11:04:28;5.90;99.90
15095;DHT22;7648;52.264;9.632;2023-01-31T11:08:33;5.90;99.90
15095;DHT22;7648;52.264;9.632;2023-01-31T11:12:40;6.00;99.90
15095;DHT22;7648;52.264;9.632;2023-01-31T11:16:43;6.10;99.90
15095;DHT22;7648;52.264;9.632;2023-01-31T11:20:46;6.10;99.90
15095;DHT22;7648;52.264;9.632;2023-01-31T11:24:49;6.20;99.90
15095;DHT22;7648;52.264;9.632;2023-01-31T11:28:51;6.20;99.90
15095;DHT22;7648;52.264;9.632;2023-01-31T11:32:54;6.30;99.90
15095;DHT22;7648;52.264;9.632;2023-01-31T11:37:05;6.20;99.90
15095;DHT22;7648;52.264;9.632;2023-01-31T11:41:27;6.20;99.90
15095;DHT22;7648;52.264;9.632;2023-01-31T11:45:29;6.20;99.90
15095;DHT22;7648;52.264;9.632;2023-01-31T11:49:34;6.10;99.90
15095;DHT22;7648;52.264;9.632;2023-01-31T11:53:44;6.10;99.90
15095;DHT22;7648;52.264;9.632;2023-01-31T11:57:54;6.00;99.90
15095;DHT22;7648;52.264;9.632;2023-01-31T12:01:58;5.90;99.90
15095;DHT22;7648;52.264;9.632;2023-01-31T12:06:03;5.90;99.90
15095;DHT22;7648;52.264;9.632;2023-01-31T12:10:34;6.00;99.90
15095;DHT22;7648;52.264;9.632;2023-01-31T12:14:38;6.00;99.90
15095;DHT22;7648;52.264;9.632;2023-01-31T12:18:52;6.10;99.90
15095;DHT22;7648;52.264;9.632;2023-01-31T12:23:05;6.20;99.90
15095;DHT22;7648;52.264;9.632;2023-01-31T12:27:19;6.20;99.90
15095;DHT22;7648;52.264;9.632;2023-01-31T12:31:45;6.20;99.90
15095;DHT22;7648;52.264;9.632;2023-01-31T12:36:01;6.20;99.90
15095;DHT22;7648;52.264;9.632;2023-01-31T12:40:25;6.20;99.90
15095;DHT22;7648;52.264;9.632;2023-01-31T12:44:42;6.20;99.90
15095;DHT22;7648;52.264;9.632;2023-01-31T12:49:07;6.10;99.90
15095;DHT22;7648;52.264;9.632;2023-01-31T12:53:25;6.10;99.90
15095;DHT22;7648;52.264;9.632;2023-01-31T12:57:36;6.10;99.90
15095;DHT22;7648;52.264;9.632;2023-01-31T13:01:46;6.10;99.90
15095;DHT22;7648;52.264;9.632;2023-01-31T13:05:54;6.10;99.90
15095;DHT22;7648;52.264;9.632;2023-01-31T13:10:00;6.00;99.90
15095;DHT22;7648;52.264;9.632;2023-01-31T13:14:05;6.10;99.90
15095;DHT22;7648;52.264;9.632;2023-01-31T13:18:12;6.00;99.90
15095;DHT22;7648;52.264;9.632;2023-01-31T13:22:19;6.10;99.90
15095;DHT22;7648;52.264;9.632;2023-01-31T13:26:28;6.20;99.90
15095;DHT22;7648;52.264;9.632;2023-01-31T13:30:34;6.20;99.90
15095;DHT22;7648;52.264;9.632;2023-01-31T13:34:43;6.20;99.90
15095;DHT22;7648;52.264;9.632;2023-01-31T13:38:46;6.30;99.90
15095;DHT22;7648;52.264;9.632;2023-01-31T13:42:49;6.20;99.90
15095;DHT22;7648;52.264;9.632;2023-01-31T13:46:56;6.20;99.90
15095;DHT22;7648;52.264;9.632;2023-01-31T13:51:03;6.20;99.90
15095;DHT22;7648;52.264;9.632;2023-01-31T13:55:15;6.20;99.90
15095;DHT22;7648;52.264;9.632;2023-01-31T13:59:21;6.20;99.90
15095;DHT22;7648;52.264;9.632;2023-01-31T14:03:25;6.10;99.90
15095;DHT22;7648;52.264;9.632;2023-01-31T14:07:28;6.10;99.90
15095;DHT22;7648;52.264;9.632;2023-01-31T14:11:33;6.20;99.90
15095;DHT22;7648;52.264;9.632;2023-01-31T14:15:46;6.10;99.90
15095;DHT22;7648;52.264;9.632;2023-01-31T14:20:04;6.20;99.90
15095;DHT22;7648;52.264;9.632;2023-01-31T14:24:18;6.30;99.90
15095;DHT22;7648;52.264;9.632;2023-01-31T14:28:20;6.40;99.90
15095;DHT22;7648;52.264;9.632;2023-01-31T14:32:29;6.40;99.90
15095;DHT22;7648;52.264;9.632;2023-01-31T14:36:43;6.50;99.90
15095;DHT22;7648;52.264;9.632;2023-01-31T14:40:55;6.60;99.90
15095;DHT22;7648;52.264;9.632;2023-01-31T14:45:14;6.60;99.90
15095;DHT22;7648;52.264;9.632;2023-01-31T14:49:58;6.60;99.90
15095;DHT22;7648;52.264;9.632;2023-01-31T14:54:27;6.60;99.90
15095;DHT22;7648;52.264;9.632;2023-01-31T14:58:34;6.60;99.90
15095;DHT22;7648;52.264;9.632;2023-01-31T15:02:46;6.60;99.90
15095;DHT22;7648;52.264;9.632;2023-01-31T15:06:51;6.60;99.90
15095;DHT22;7648;52.264;9.632;2023-01-31T15:10:58;6.60;99.90
15095;DHT22;7648;52.264;9.632;2023-01-31T15:15:09;6.60;99.90
15095;DHT22;7648;52.264;9.632;2023-01-31T15:19:21;6.60;99.90
15095;DHT22;7648;52.264;9.632;2023-01-31T15:23:26;6.60;99.90
15095;DHT22;7648;52.264;9.632;2023-01-31T15:27:31;6.60;99.90
15095;DHT22;7648;52.264;9.632;2023-01-31T15:31:41;6.60;99.90
15095;DHT22;7648;52.264;9.632;2023-01-31T15:35:51;6.60;99.90
15095;DHT22;7648;52.264;9.632;2023-01-31T15:39:55;6.60;99.90
15095;DHT22;7648;52.264;9.632;2023-01-31T15:44:10;6.60;99.90
15095;DHT22;7648;52.264;9.632;2023-01-31T15:48:15;6.50;99.90
15095;DHT22;7648;52.264;9.632;2023-01-31T15:52:19;6.50;99.90
15095;DHT22;7648;52.264;9.632;2023-01-31T15:56:23;6.50;99.90
15095;DHT22;7648;52.264;9.632;2023-01-31T16:00:28;6.50;99.90
15095;DHT22;7648;52.264;9.632;2023-01-31T16:04:31;6.50;99.90
15095;DHT22;7648;52.264;9.632;2023-01-31T16:08:35;6.50;99.90
15095;DHT22;7648;52.264;9.632;2023-01-31T16:12:43;6.60;99.90
15095;DHT22;7648;52.264;9.632;2023-01-31T16:16:47;6.70;99.90
15095;DHT22;7648;52.264;9.632;2023-01-31T16:20:53;6.70;99.90
15095;DHT22;7648;52.264;9.632;2023-01-31T16:24:57;6.70;99.90
15095;DHT22;7648;52.264;9.632;2023-01-31T16:29:06;6.80;99.90
15095;DHT22;7648;52.264;9.632;2023-01-31T16:33:15;7.00;99.90
15095;DHT22;7648;52.264;9.632;2023-01-31T16:37:28;7.00;99.90
15095;DHT22;7648;52.264;9.632;2023-01-31T16:41:41;7.10;99.90
15095;DHT22;7648;52.264;9.632;2023-01-31T16:45:49;7.00;99.90
15095;DHT22;7648;52.264;9.632;2023-01-31T16:50:31;6.90;99.90
15095;DHT22;7648;52.264;9.632;2023-01-31T16:54:42;6.90;99.90
15095;DHT22;7648;52.264;9.632;2023-01-31T16:58:47;6.90;99.90
15095;DHT22;7648;52.264;9.632;2023-01-31T17:02:50;6.80;99.90
15095;DHT22;7648;52.264;9.632;2023-01-31T17:07:01;6.80;99.90
15095;DHT22;7648;52.264;9.632;2023-01-31T17:11:06;6.90;99.90
15095;DHT22;7648;52.264;9.632;2023-01-31T17:15:14;6.90;99.90
15095;DHT22;7648;52.264;9.632;2023-01-31T17:19:16;6.90;99.90
15095;DHT22;7648;52.264;9.632;2023-01-31T17:23:18;6.80;99.90
15095;DHT22;7648;52.264;9.632;2023-01-31T17:27:21;6.80;99.90
15095;DHT22;7648;52.264;9.632;2023-01-31T17:31:23;6.70;99.90
15095;DHT22;7648;52.264;9.632;2023-01-31T17:35:31;6.70;99.90
15095;DHT22;7648;52.264;9.632;2023-01-31T17:39:33;6.70;99.90
15095;DHT22;7648;52.264;9.632;2023-01-31T17:43:36;6.70;99.90
15095;DHT22;7648;52.264;9.632;2023-01-31T17:47:38;6.70;99.90
15095;DHT22;7648;52.264;9.632;2023-01-31T17:51:40;6.70;99.90
15095;DHT22;7648;52.264;9.632;2023-01-31T17:55:42;6.70;99.90
15095;DHT22;7648;52.264;9.632;2023-01-31T17:59:45;6.70;99.90
15095;DHT22;7648;52.264;9.632;2023-01-31T18:03:48;6.70;99.90
15095;DHT22;7648;52.264;9.632;2023-01-31T18:07:50;6.70;99.90
15095;DHT22;7648;52.264;9.632;2023-01-31T18:11:52;6.70;99.90
15095;DHT22;7648;52.264;9.632;2023-01-31T18:16:02;6.70;99.90
15095;DHT22;7648;52.264;9.632;2023-01-31T18:20:05;6.70;99.90
15095;DHT22;7648;52.264;9.632;2023-01-31T18:24:09;6.70;99.90
15095;DHT22;7648;52.264;9.632;2023-01-31T18:28:11;6.70;99.90
15095;DHT22;7648;52.264;9.632;2023-01-31T18:32:14;6.70;99.90
15095;DHT22;7648;52.264;9.632;2023-01-31T18:36:18;6.80;99.90
15095;DHT22;7648;52.264;9.632;2023-01-31T18:40:20;6.70;99.90
15095;DHT22;7648;52.264;9.632;2023-01-31T18:44:22;6.70;99.90
15095;DHT22;7648;52.264;9.632;2023-01-31T18:48:26;6.70;99.90
15095;DHT22;7648;52.264;9.632;2023-01-31T18:52:28;6.90;99.90
15095;DHT22;7648;52.264;9.632;2023-01-31T18:56:30;6.90;99.90
15095;DHT22;7648;52.264;9.632;2023-01-31T19:00:32;7.00;99.90
15095;DHT22;7648;52.264;9.632;2023-01-31T19:04:36;6.90;99.90
15095;DHT22;7648;52.264;9.632;2023-01-31T19:08:38;7.00;99.90
15095;DHT22;7648;52.264;9.632;2023-01-31T19:12:40;6.90;99.90
15095;DHT22;7648;52.264;9.632;2023-01-31T19:16:42;6.80;99.90
15095;DHT22;7648;52.264;9.632;2023-01-31T19:20:46;6.90;99.90
15095;DHT22;7648;52.264;9.632;2023-01-31T19:24:48;6.90;99.90
15095;DHT22;7648;52.264;9.632;2023-01-31T19:28:50;6.90;99.90
15095;DHT22;7648;52.264;9.632;2023-01-31T19:32:52;6.90;99.90
15095;DHT22;7648;52.264;9.632;2023-01-31T19:36:55;6.80;99.90
15095;DHT22;7648;52.264;9.632;2023-01-31T19:41:03;6.80;99.90
15095;DHT22;7648;52.264;9.632;2023-01-31T19:45:06;6.70;99.90
15095;DHT22;7648;52.264;9.632;2023-01-31T19:49:10;6.70;99.90
15095;DHT22;7648;52.264;9.632;2023-01-31T19:53:14;6.70;99.90
15095;DHT22;7648;52.264;9.632;2023-01-31T19:57:15;6.60;99.90
15095;DHT22;7648;52.264;9.632;2023-01-31T20:01:18;6.60;99.90
15095;DHT22;7648;52.264;9.632;2023-01-31T20:05:19;6.60;99.90
15095;DHT22;7648;52.264;9.632;2023-01-31T20:09:23;6.40;99.90
15095;DHT22;7648;52.264;9.632;2023-01-31T20:13:25;6.40;99.90
15095;DHT22;7648;52.264;9.632;2023-01-31T20:17:26;6.40;99.90
15095;DHT22;7648;52.264;9.632;2023-01-31T20:21:30;6.30;99.90
15095;DHT22;7648;52.264;9.632;2023-01-31T20:25:33;6.30;99.90
15095;DHT22;7648;52.264;9.632;2023-01-31T20:29:35;6.20;99.90
15095;DHT22;7648;52.264;9.632;2023-01-31T20:33:37;6.10;99.90
15095;DHT22;7648;52.264;9.632;2023-01-31T20:37:39;6.10;99.90
15095;DHT22;7648;52.264;9.632;2023-01-31T20:41:42;6.10;99.90
15095;DHT22;7648;52.264;9.632;2023-01-31T20:45:44;6.00;99.90
15095;DHT22;7648;52.264;9.632;2023-01-31T20:49:46;6.00;99.90
15095;DHT22;7648;52.264;9.632;2023-01-31T20:53:48;5.90;99.90
15095;DHT22;7648;52.264;9.632;2023-01-31T20:57:51;5.90;99.90
15095;DHT22;7648;52.264;9.632;2023-01-31T21:01:53;5.90;99.90
15095;DHT22;7648;52.264;9.632;2023-01-31T21:05:56;5.90;99.90
15095;DHT22;7648;52.264;9.632;2023-01-31T21:09:59;5.90;99.90
15095;DHT22;7648;52.264;9.632;2023-01-31T21:14:02;5.90;99.90
15095;DHT22;7648;52.264;9.632;2023-01-31T21:18:04;5.90;99.90
15095;DHT22;7648;52.264;9.632;2023-01-31T21:22:06;5.90;99.90
15095;DHT22;7648;52.264;9.632;2023-01-31T21:26:09;5.80;99.90
15095;DHT22;7648;52.264;9.632;2023-01-31T21:30:13;5.90;99.90
15095;DHT22;7648;52.264;9.632;2023-01-31T21:34:16;5.90;99.90
15095;DHT22;7648;52.264;9.632;2023-01-31T21:38:19;5.80;99.90
15095;DHT22;7648;52.264;9.632;2023-01-31T21:42:21;5.80;99.90
15095;DHT22;7648;52.264;9.632;2023-01-31T21:46:25;5.70;99.90
15095;DHT22;7648;52.264;9.632;2023-01-31T21:50:27;5.70;99.90
15095;DHT22;7648;52.264;9.632;2023-01-31T21:54:28;5.70;99.90
15095;DHT22;7648;52.264;9.632;2023-01-31T21:58:31;5.70;99.90
15095;DHT22;7648;52.264;9.632;2023-01-31T22:02:34;5.70;99.90
15095;DHT22;7648;52.264;9.632;2023-01-31T22:06:37;5.60;99.90
15095;DHT22;7648;52.264;9.632;2023-01-31T22:10:39;5.60;99.90
15095;DHT22;7648;52.264;9.632;2023-01-31T22:14:41;5.60;99.90
15095;DHT22;7648;52.264;9.632;2023-01-31T22:18:45;5.60;99.90
15095;DHT22;7648;52.264;9.632;2023-01-31T22:22:47;5.60;99.90
15095;DHT22;7648;52.264;9.632;2023-01-31T22:26:49;5.60;99.90
15095;DHT22;7648;52.264;9.632;2023-01-31T22:30:52;5.60;99.90
15095;DHT22;7648;52.264;9.632;2023-01-31T22:34:55;5.50;99.90
15095;DHT22;7648;52.264;9.632;2023-01-31T22:38:58;5.60;99.90
15095;DHT22;7648;52.264;9.632;2023-01-31T22:43:00;5.50;99.90
15095;DHT22;7648;52.264;9.632;2023-01-31T22:47:02;5.50;99.90
15095;DHT22;7648;52.264;9.632;2023-01-31T22:51:09;5.60;99.90
15095;DHT22;7648;52.264;9.632;2023-01-31T22:55:11;5.70;99.90
15095;DHT22;7648;52.264;9.632;2023-01-31T22:59:13;5.60;99.90
15095;DHT22;7648;52.264;9.632;2023-01-31T23:03:14;5.60;99.90
15095;DHT22;7648;52.264;9.632;2023-01-31T23:07:18;5.50;99.90
15095;DHT22;7648;52.264;9.632;2023-01-31T23:11:20;5.50;99.90
15095;DHT22;7648;52.264;9.632;2023-01-31T23:15:23;5.50;99.90
15095;DHT22;7648;52.264;9.632;2023-01-31T23:19:24;5.50;99.90
15095;DHT22;7648;52.264;9.632;2023-01-31T23:23:28;5.50;99.90
15095;DHT22;7648;52.264;9.632;2023-01-31T23:27:30;5.50;99.90
15095;DHT22;7648;52.264;9.632;2023-01-31T23:31:32;5.50;99.90
15095;DHT22;7648;52.264;9.632;2023-01-31T23:35:33;5.50;99.90
15095;DHT22;7648;52.264;9.632;2023-01-31T23:39:37;5.60;99.90
15095;DHT22;7648;52.264;9.632;2023-01-31T23:43:38;5.50;99.90
15095;DHT22;7648;52.264;9.632;2023-01-31T23:47:40;5.50;99.90
15095;DHT22;7648;52.264;9.632;2023-01-31T23:51:44;5.50;99.90
15095;DHT22;7648;52.264;9.632;2023-01-31T23:55:47;5.50;99.90
15095;DHT22;7648;52.264;9.632;2023-01-31T23:59:49;5.40;99.90
